Time;durP1;ratioP1;P1;durP2;ratioP2;P2;SDS_P1;SDS_P2;PMS_P1;PMS_P2;Temp;Humidity;BMP_temperature;BMP_pressure;BME280_temperature;BME280_humidity;BME280_pressure;Samples;Min_cycle;Max_cycle;Signal;HPM_P1;HPM_P2
2021/04/02 00:01:28;;;;;;;6.40;3.10;;;;;;;;;;3600908;39;20149;-56
2021/04/02 00:03:53;;;;;;;6.18;3.28;;;;;;;;;;3603465;39;20067;-53
2021/04/02 00:06:19;;;;;;;7.78;3.65;;;;;;;;;;3602806;39;20075;-54
2021/04/02 00:08:44;;;;;;;8.85;3.10;;;;;;;;;;3601942;39;20064;-51
2021/04/02 00:11:12;;;;;;;5.47;2.95;;;;;;;;;;3601845;39;20628;-53
2021/04/02 00:13:40;;;;;;;7.28;2.70;;;;;;;;;;3602441;39;20088;-53
2021/04/02 00:16:06;;;;;;;8.25;3.10;;;;;;;;;;3603068;39;20335;-55
2021/04/02 00:18:32;;;;;;;5.55;2.90;;;;;;;;;;3599753;39;20064;-54
2021/04/02 00:21:00;;;;;;;6.55;3.35;;;;;;;;;;3602988;39;20071;-50
2021/04/02 00:23:25;;;;;;;7.82;3.83;;;;;;;;;;3602421;39;20063;-54
2021/04/02 00:25:51;;;;;;;6.45;3.83;;;;;;;;;;3603035;39;20366;-52
2021/04/02 00:28:17;;;;;;;7.13;4.00;;;;;;;;;;3600912;39;20064;-53
2021/04/02 00:30:51;;;;;;;6.15;3.30;;;;;;;;;;3601813;39;20072;-54
2021/04/02 00:33:21;;;;;;;5.88;3.58;;;;;;;;;;3602812;39;20071;-51
2021/04/02 00:35:46;;;;;;;9.93;3.92;;;;;;;;;;3602362;39;20067;-52
2021/04/02 00:38:12;;;;;;;6.97;4.00;;;;;;;;;;3601112;39;20059;-52
2021/04/02 00:40:40;;;;;;;11.10;3.90;;;;;;;;;;3602091;39;20091;-53
2021/04/02 00:43:05;;;;;;;6.20;3.78;;;;;;;;;;3602873;39;20078;-52
2021/04/02 00:45:31;;;;;;;8.00;4.63;;;;;;;;;;3602177;39;20067;-54
2021/04/02 00:47:56;;;;;;;11.90;4.05;;;;;;;;;;3602072;39;20087;-53
2021/04/02 00:50:46;;;;;;;6.57;4.57;;;;;;;;;;3601723;39;20074;-52
2021/04/02 00:53:12;;;;;;;5.63;4.00;;;;;;;;;;3601809;39;20111;-52
2021/04/02 00:55:39;;;;;;;10.80;4.80;;;;;;;;;;3601452;39;20404;-52
2021/04/02 00:58:08;;;;;;;7.50;4.15;;;;;;;;;;3602664;39;20064;-53
2021/04/02 01:00:34;;;;;;;18.90;4.70;;;;;;;;;;3601659;39;20164;-53
2021/04/02 01:02:59;;;;;;;7.45;4.15;;;;;;;;;;3600373;39;20087;-54
2021/04/02 01:05:29;;;;;;;8.73;5.13;;;;;;;;;;3602313;39;20070;-54
2021/04/02 01:07:58;;;;;;;8.55;5.13;;;;;;;;;;3602940;39;20075;-54
2021/04/02 01:10:26;;;;;;;9.60;5.03;;;;;;;;;;3600366;39;20071;-55
2021/04/02 01:13:16;;;;;;;10.90;5.35;;;;;;;;;;3602080;39;20074;-53
2021/04/02 01:16:03;;;;;;;10.63;5.03;;;;;;;;;;3600135;39;20075;-55
2021/04/02 01:18:46;;;;;;;8.80;5.47;;;;;;;;;;3600880;39;20068;-52
2021/04/02 01:21:25;;;;;;;11.48;6.68;;;;;;;;;;3602435;39;20240;-55
2021/04/02 01:24:04;;;;;;;12.48;6.13;;;;;;;;;;3602371;39;20154;-53
2021/04/02 01:26:32;;;;;;;7.63;5.72;;;;;;;;;;3600933;39;20078;-54
2021/04/02 01:29:22;;;;;;;10.80;5.18;;;;;;;;;;3600807;39;20355;-54
2021/04/02 01:31:51;;;;;;;10.25;5.18;;;;;;;;;;3602719;39;20074;-53
2021/04/02 01:34:23;;;;;;;12.30;5.22;;;;;;;;;;3602458;39;20072;-52
2021/04/02 01:36:52;;;;;;;13.50;6.00;;;;;;;;;;3602462;39;20083;-55
2021/04/02 01:39:19;;;;;;;8.52;6.03;;;;;;;;;;3601215;39;20099;-52
2021/04/02 01:41:46;;;;;;;8.15;5.10;;;;;;;;;;3602171;39;20075;-53
2021/04/02 01:44:13;;;;;;;15.68;5.80;;;;;;;;;;3602582;39;20056;-53
2021/04/02 01:46:39;;;;;;;6.88;5.55;;;;;;;;;;3599094;39;20552;-55
2021/04/02 01:49:06;;;;;;;9.10;6.05;;;;;;;;;;3602704;39;20190;-54
2021/04/02 01:51:33;;;;;;;9.20;5.63;;;;;;;;;;3601714;39;20073;-54
2021/04/02 01:54:01;;;;;;;9.00;5.70;;;;;;;;;;3601658;39;20080;-53
2021/04/02 01:56:28;;;;;;;8.23;5.75;;;;;;;;;;3601424;39;20106;-55
2021/04/02 01:58:56;;;;;;;8.45;5.82;;;;;;;;;;3602535;39;20076;-53
2021/04/02 02:01:26;;;;;;;8.07;5.45;;;;;;;;;;3601806;39;20422;-52
2021/04/02 02:03:55;;;;;;;19.48;6.40;;;;;;;;;;3600750;39;20174;-53
2021/04/02 02:06:23;;;;;;;11.63;6.35;;;;;;;;;;3601479;39;20099;-51
2021/04/02 02:08:52;;;;;;;10.45;6.05;;;;;;;;;;3600753;39;20307;-52
2021/04/02 02:11:18;;;;;;;10.35;6.50;;;;;;;;;;3599548;39;20067;-50
2021/04/02 02:13:49;;;;;;;8.75;6.22;;;;;;;;;;3602105;39;20254;-51
2021/04/02 02:16:15;;;;;;;;;;;;;;;;;;3600957;39;20095;-52
2021/04/02 02:18:42;;;;;;;7.68;5.68;;;;;;;;;;3600777;39;19967;-54
2021/04/02 02:21:09;;;;;;;6.93;5.63;;;;;;;;;;3601482;39;20095;-51
2021/04/02 02:23:35;;;;;;;8.48;6.25;;;;;;;;;;3600978;39;20095;-54
2021/04/02 02:26:01;;;;;;;8.05;6.15;;;;;;;;;;3602620;39;20068;-54
2021/04/02 02:28:27;;;;;;;9.77;5.82;;;;;;;;;;3600562;39;20075;-54
2021/04/02 02:30:52;;;;;;;7.88;6.18;;;;;;;;;;3600800;39;20084;-55
2021/04/02 02:33:18;;;;;;;13.57;6.38;;;;;;;;;;3601605;39;20354;-51
2021/04/02 02:35:43;;;;;;;8.00;6.30;;;;;;;;;;3601859;39;20075;-50
2021/04/02 02:38:09;;;;;;;10.68;6.43;;;;;;;;;;3601290;39;20068;-53
2021/04/02 02:40:37;;;;;;;10.10;6.65;;;;;;;;;;3600034;39;20601;-54
2021/04/02 02:43:04;;;;;;;8.40;5.60;;;;;;;;;;3602110;39;20083;-53
2021/04/02 02:45:30;;;;;;;11.77;5.47;;;;;;;;;;3597708;39;20389;-52
2021/04/02 02:47:56;;;;;;;10.25;6.18;;;;;;;;;;3598015;39;20751;-52
2021/04/02 02:50:33;;;;;;;14.50;6.72;;;;;;;;;;3599491;39;20150;-54
2021/04/02 02:53:06;;;;;;;7.38;6.00;;;;;;;;;;3601501;39;20099;-54
2021/04/02 02:55:32;;;;;;;6.63;5.43;;;;;;;;;;3600525;39;20079;-53
2021/04/02 02:58:01;;;;;;;6.72;5.95;;;;;;;;;;3599804;39;20084;-54
2021/04/02 03:00:30;;;;;;;11.15;6.07;;;;;;;;;;3601207;39;20071;-54
2021/04/02 03:03:01;;;;;;;6.30;5.22;;;;;;;;;;3600852;39;20133;-51
2021/04/02 03:05:29;;;;;;;8.60;6.43;;;;;;;;;;3601521;39;20106;-50
2021/04/02 03:08:04;;;;;;;6.97;5.75;;;;;;;;;;3601426;39;20158;-53
2021/04/02 03:10:32;;;;;;;7.45;6.05;;;;;;;;;;3600356;39;20108;-50
2021/04/02 03:12:58;;;;;;;6.95;5.88;;;;;;;;;;3598456;39;20067;-49
2021/04/02 03:15:25;;;;;;;7.35;6.38;;;;;;;;;;3600352;39;20184;-52
2021/04/02 03:17:58;;;;;;;9.40;5.80;;;;;;;;;;3601455;39;20364;-54
2021/04/02 03:20:25;;;;;;;8.32;6.03;;;;;;;;;;3601277;39;20060;-54
2021/04/02 03:22:53;;;;;;;8.57;6.43;;;;;;;;;;3601161;39;20084;-54
2021/04/02 03:25:21;;;;;;;14.05;6.68;;;;;;;;;;3600847;39;20060;-53
2021/04/02 03:27:47;;;;;;;8.98;5.70;;;;;;;;;;3601896;39;20079;-49
2021/04/02 03:30:15;;;;;;;7.43;6.03;;;;;;;;;;3598981;39;20613;-54
2021/04/02 03:32:43;;;;;;;9.60;6.18;;;;;;;;;;3599127;39;20064;-51
2021/04/02 03:35:11;;;;;;;7.35;5.63;;;;;;;;;;3600334;39;20136;-55
2021/04/02 03:37:38;;;;;;;8.85;6.30;;;;;;;;;;3601052;39;20099;-52
2021/04/02 03:40:10;;;;;;;12.00;6.45;;;;;;;;;;3600441;39;20152;-55
2021/04/02 03:42:37;;;;;;;6.45;5.22;;;;;;;;;;3601017;39;20442;-55
2021/04/02 03:45:04;;;;;;;9.05;5.93;;;;;;;;;;3601741;39;20122;-52
2021/04/02 03:47:31;;;;;;;8.15;5.72;;;;;;;;;;3600827;39;20095;-53
2021/04/02 03:49:57;;;;;;;7.57;5.90;;;;;;;;;;3597295;39;20299;-50
2021/04/02 03:52:31;;;;;;;7.55;5.30;;;;;;;;;;3600755;39;20071;-53
2021/04/02 03:54:57;;;;;;;7.35;5.88;;;;;;;;;;3600572;39;20078;-50
2021/04/02 03:57:24;;;;;;;8.70;6.18;;;;;;;;;;3600854;39;20064;-55
2021/04/02 03:59:52;;;;;;;6.80;5.88;;;;;;;;;;3599999;39;20075;-52
2021/04/02 04:02:18;;;;;;;8.60;5.90;;;;;;;;;;3601282;39;20165;-54
2021/04/02 04:04:45;;;;;;;8.80;6.05;;;;;;;;;;3601079;39;21071;-52
2021/04/02 04:07:12;;;;;;;7.00;5.63;;;;;;;;;;3601623;39;20102;-55
2021/04/02 04:09:40;;;;;;;8.07;5.72;;;;;;;;;;3598076;39;20398;-55
2021/04/02 04:12:09;;;;;;;9.70;5.95;;;;;;;;;;3601371;39;20076;-53
2021/04/02 04:14:38;;;;;;;7.78;6.43;;;;;;;;;;3600057;39;20112;-53
2021/04/02 04:17:04;;;;;;;7.30;5.38;;;;;;;;;;3597417;39;20075;-54
2021/04/02 04:19:31;;;;;;;7.07;5.55;;;;;;;;;;3601038;39;20075;-53
2021/04/02 04:21:58;;;;;;;11.57;5.65;;;;;;;;;;3600783;39;20188;-53
2021/04/02 04:24:25;;;;;;;7.15;5.75;;;;;;;;;;3600861;39;20160;-51
2021/04/02 04:26:53;;;;;;;7.20;5.18;;;;;;;;;;3598984;39;20118;-55
2021/04/02 04:29:46;;;;;;;7.40;5.78;;;;;;;;;;3599973;39;20056;-54
2021/04/02 04:32:17;;;;;;;6.47;5.25;;;;;;;;;;3601581;39;20059;-53
2021/04/02 04:34:44;;;;;;;7.88;5.35;;;;;;;;;;3600568;39;20279;-55
2021/04/02 04:37:10;;;;;;;7.70;4.93;;;;;;;;;;3599668;39;20067;-53
2021/04/02 04:39:36;;;;;;;5.82;5.07;;;;;;;;;;3600439;39;20060;-53
2021/04/02 04:42:03;;;;;;;9.13;5.35;;;;;;;;;;3601268;39;20172;-50
2021/04/02 04:44:29;;;;;;;6.85;5.03;;;;;;;;;;3599718;39;20078;-52
2021/04/02 04:46:55;;;;;;;8.02;5.07;;;;;;;;;;3601598;39;20167;-53
2021/04/02 04:49:20;;;;;;;12.25;5.40;;;;;;;;;;3601902;39;20060;-50
2021/04/02 04:51:48;;;;;;;7.28;5.00;;;;;;;;;;3602546;39;20367;-51
2021/04/02 04:54:16;;;;;;;8.60;5.57;;;;;;;;;;3599314;39;20064;-54
2021/04/02 04:56:42;;;;;;;8.05;5.30;;;;;;;;;;3602501;39;20056;-53
2021/04/02 04:59:10;;;;;;;6.70;5.10;;;;;;;;;;3602344;39;20176;-51
2021/04/02 05:01:41;;;;;;;7.15;5.60;;;;;;;;;;3601406;39;20084;-55
2021/04/02 05:04:08;;;;;;;7.93;6.13;;;;;;;;;;3602816;39;20083;-53
2021/04/02 05:06:35;;;;;;;8.07;5.57;;;;;;;;;;3602101;39;20119;-54
2021/04/02 05:09:03;;;;;;;8.40;5.50;;;;;;;;;;3601652;39;20068;-52
2021/04/02 05:11:31;;;;;;;7.38;5.75;;;;;;;;;;3599973;39;20153;-55
2021/04/02 05:13:58;;;;;;;6.70;5.25;;;;;;;;;;3601649;39;20060;-54
2021/04/02 05:16:24;;;;;;;8.00;5.90;;;;;;;;;;3601725;39;20076;-54
2021/04/02 05:18:54;;;;;;;10.63;6.03;;;;;;;;;;3600459;39;20180;-53
2021/04/02 05:21:19;;;;;;;6.47;5.65;;;;;;;;;;3602081;39;20112;-55
2021/04/02 05:23:46;;;;;;;7.60;5.88;;;;;;;;;;3600665;39;20107;-51
2021/04/02 05:26:13;;;;;;;11.43;5.95;;;;;;;;;;3601465;39;20071;-52
2021/04/02 05:28:40;;;;;;;6.95;5.78;;;;;;;;;;3597284;39;20060;-50
2021/04/02 05:31:06;;;;;;;10.82;5.95;;;;;;;;;;3600856;39;20072;-49
2021/04/02 05:33:31;;;;;;;7.78;5.55;;;;;;;;;;3601773;39;20366;-49
2021/04/02 05:35:57;;;;;;;6.68;5.82;;;;;;;;;;3601992;39;20056;-52
2021/04/02 05:38:22;;;;;;;7.20;6.10;;;;;;;;;;3600250;39;20378;-53
2021/04/02 05:40:48;;;;;;;7.53;5.50;;;;;;;;;;3602275;39;20099;-54
2021/04/02 05:43:32;;;;;;;6.78;5.80;;;;;;;;;;3600442;39;20149;-51
2021/04/02 05:45:59;;;;;;;8.02;5.32;;;;;;;;;;3599953;39;20088;-51
2021/04/02 05:48:26;;;;;;;6.57;4.70;;;;;;;;;;3599591;39;20067;-54
2021/04/02 05:50:54;;;;;;;8.45;5.68;;;;;;;;;;3598464;39;20453;-51
2021/04/02 05:53:21;;;;;;;7.72;5.80;;;;;;;;;;3601486;39;20157;-52
2021/04/02 05:55:48;;;;;;;9.43;6.38;;;;;;;;;;3602310;39;20176;-50
2021/04/02 05:58:14;;;;;;;5.53;4.65;;;;;;;;;;3596097;39;20381;-55
2021/04/02 06:00:41;;;;;;;6.80;5.00;;;;;;;;;;3599710;39;20163;-53
2021/04/02 06:03:08;;;;;;;7.40;5.20;;;;;;;;;;3598652;39;20542;-53
2021/04/02 06:05:34;;;;;;;6.97;5.22;;;;;;;;;;3599888;39;20056;-54
2021/04/02 06:08:00;;;;;;;6.45;4.32;;;;;;;;;;3599590;39;20064;-52
2021/04/02 06:10:26;;;;;;;10.07;5.38;;;;;;;;;;3597477;39;20079;-54
2021/04/02 06:12:53;;;;;;;6.88;4.88;;;;;;;;;;3602604;39;20655;-54
2021/04/02 06:15:18;;;;;;;8.88;4.82;;;;;;;;;;3601320;39;20064;-54
2021/04/02 06:18:08;;;;;;;8.88;4.70;;;;;;;;;;3600119;39;20064;-52
2021/04/02 06:20:46;;;;;;;5.45;4.30;;;;;;;;;;3601238;39;20091;-54
2021/04/02 06:23:21;;;;;;;6.78;4.50;;;;;;;;;;3602201;39;20079;-54
2021/04/02 06:25:56;;;;;;;7.05;4.32;;;;;;;;;;3599805;39;20445;-53
2021/04/02 06:28:38;;;;;;;6.47;4.47;;;;;;;;;;3599684;39;20087;-53
2021/04/02 06:31:15;;;;;;;7.60;4.25;;;;;;;;;;3601406;39;20144;-54
2021/04/02 06:33:44;;;;;;;8.38;4.65;;;;;;;;;;3601047;39;20068;-50
2021/04/02 06:36:21;;;;;;;5.93;4.57;;;;;;;;;;3602290;39;20482;-53
2021/04/02 06:38:51;;;;;;;7.75;4.95;;;;;;;;;;3601955;39;20182;-51
2021/04/02 06:41:18;;;;;;;5.93;4.90;;;;;;;;;;3596476;39;20348;-54
2021/04/02 06:43:46;;;;;;;8.35;5.32;;;;;;;;;;3601733;39;20096;-50
2021/04/02 06:46:14;;;;;;;6.43;4.88;;;;;;;;;;3602016;39;20072;-52
2021/04/02 06:48:40;;;;;;;6.40;4.38;;;;;;;;;;3600083;39;20160;-54
2021/04/02 06:51:15;;;;;;;9.88;4.60;;;;;;;;;;3601134;39;20078;-51
2021/04/02 06:53:45;;;;;;;6.25;4.57;;;;;;;;;;3601703;39;20074;-51
2021/04/02 06:56:13;;;;;;;8.68;5.05;;;;;;;;;;3599187;39;20367;-53
2021/04/02 06:58:40;;;;;;;5.72;4.57;;;;;;;;;;3601003;39;20204;-54
2021/04/02 07:01:06;;;;;;;5.63;4.43;;;;;;;;;;3600584;39;20060;-55
2021/04/02 07:03:34;;;;;;;7.55;4.82;;;;;;;;;;3600559;39;20168;-50
2021/04/02 07:06:08;;;;;;;6.25;4.40;;;;;;;;;;3601335;39;20183;-55
2021/04/02 07:08:37;;;;;;;8.02;4.97;;;;;;;;;;3601062;39;20068;-55
2021/04/02 07:11:02;;;;;;;6.90;4.50;;;;;;;;;;3600415;39;20092;-54
2021/04/02 07:13:43;;;;;;;6.15;4.20;;;;;;;;;;3601228;39;20068;-53
2021/04/02 07:16:10;;;;;;;5.88;4.32;;;;;;;;;;3599851;39;20418;-54
2021/04/02 07:18:37;;;;;;;8.02;4.97;;;;;;;;;;3600889;39;20173;-53
2021/04/02 07:21:03;;;;;;;5.85;4.57;;;;;;;;;;3600953;39;20100;-54
2021/04/02 07:23:28;;;;;;;6.43;3.92;;;;;;;;;;3596915;39;20097;-53
2021/04/02 07:25:55;;;;;;;6.90;4.47;;;;;;;;;;3599810;39;20067;-55
2021/04/02 07:28:22;;;;;;;7.60;4.55;;;;;;;;;;3601185;39;20359;-52
2021/04/02 07:30:48;;;;;;;5.88;4.05;;;;;;;;;;3599773;39;20082;-54
2021/04/02 07:33:15;;;;;;;6.07;4.95;;;;;;;;;;3600162;39;20072;-55
2021/04/02 07:35:41;;;;;;;6.50;5.03;;;;;;;;;;3601009;39;20076;-52
2021/04/02 07:38:15;;;;;;;7.45;4.70;;;;;;;;;;3602079;39;20088;-54
2021/04/02 07:40:47;;;;;;;5.32;3.88;;;;;;;;;;3599873;39;20079;-52
2021/04/02 07:43:12;;;;;;;;;;;;;;;;;;3602216;39;20169;-54
2021/04/02 07:45:38;;;;;;;5.90;4.45;;;;;;;;;;3601187;39;19949;-52
2021/04/02 07:48:15;;;;;;;5.32;4.15;;;;;;;;;;3597724;39;20080;-53
2021/04/02 07:50:56;;;;;;;6.13;4.57;;;;;;;;;;3599568;39;20156;-54
2021/04/02 07:53:27;;;;;;;6.33;4.80;;;;;;;;;;3601004;39;20068;-53
2021/04/02 07:56:02;;;;;;;7.07;4.40;;;;;;;;;;3601226;39;20377;-51
2021/04/02 07:58:30;;;;;;;5.68;4.50;;;;;;;;;;3598632;39;20168;-53
2021/04/02 08:00:59;;;;;;;6.03;4.70;;;;;;;;;;3601690;39;20405;-52
2021/04/02 08:03:30;;;;;;;11.60;4.68;;;;;;;;;;3601071;39;20064;-55
2021/04/02 08:06:02;;;;;;;8.23;4.38;;;;;;;;;;3601241;39;20082;-54
2021/04/02 08:08:39;;;;;;;5.28;4.10;;;;;;;;;;3600340;39;20299;-54
2021/04/02 08:11:06;;;;;;;6.28;4.78;;;;;;;;;;3600591;39;20068;-50
2021/04/02 08:13:57;;;;;;;7.00;4.68;;;;;;;;;;3599828;39;20067;-54
2021/04/02 08:16:25;;;;;;;;;;;;;;;;;;3599977;39;20107;-55
2021/04/02 08:19:03;;;;;;;7.15;5.07;;;;;;;;;;3599414;39;19932;-54
2021/04/02 08:21:32;;;;;;;6.68;4.35;;;;;;;;;;3600794;39;20068;-52
2021/04/02 08:23:58;;;;;;;9.07;4.40;;;;;;;;;;3600143;39;20113;-50
2021/04/02 08:26:29;;;;;;;5.68;4.70;;;;;;;;;;3602552;39;20068;-52
2021/04/02 08:28:55;;;;;;;8.15;5.05;;;;;;;;;;3602395;39;20171;-54
2021/04/02 08:31:20;;;;;;;5.90;4.53;;;;;;;;;;3599348;39;20076;-54
2021/04/02 08:33:46;;;;;;;6.75;4.95;;;;;;;;;;3602754;39;20208;-51
2021/04/02 08:36:11;;;;;;;5.43;4.50;;;;;;;;;;3593477;39;20066;-51
2021/04/02 08:38:45;;;;;;;8.80;5.20;;;;;;;;;;3601015;39;20088;-51
2021/04/02 08:41:19;;;;;;;8.07;5.00;;;;;;;;;;3601685;39;20237;-53
2021/04/02 08:43:44;;;;;;;6.45;5.13;;;;;;;;;;3602686;39;20111;-49
2021/04/02 08:46:10;;;;;;;6.45;5.70;;;;;;;;;;3602582;39;20066;-53
2021/04/02 08:48:35;;;;;;;8.18;5.60;;;;;;;;;;3602061;39;20069;-53
2021/04/02 08:51:01;;;;;;;6.15;5.07;;;;;;;;;;3601325;39;20072;-53
2021/04/02 08:53:39;;;;;;;8.23;5.32;;;;;;;;;;3602135;39;20146;-53
2021/04/02 08:56:06;;;;;;;8.75;5.28;;;;;;;;;;3602644;39;20067;-52
2021/04/02 08:58:32;;;;;;;8.38;6.35;;;;;;;;;;3600324;39;20421;-55
2021/04/02 09:00:58;;;;;;;7.15;5.30;;;;;;;;;;3600419;39;20079;-54
2021/04/02 09:03:24;;;;;;;7.43;5.63;;;;;;;;;;3601868;39;20063;-54
2021/04/02 09:05:49;;;;;;;6.63;5.93;;;;;;;;;;3602167;39;20159;-54
2021/04/02 09:08:15;;;;;;;6.78;5.97;;;;;;;;;;3602239;39;20074;-54
2021/04/02 09:10:41;;;;;;;7.40;6.47;;;;;;;;;;3601363;39;20084;-51
2021/04/02 09:13:06;;;;;;;10.88;5.50;;;;;;;;;;3602611;39;20103;-54
2021/04/02 09:15:36;;;;;;;6.90;5.32;;;;;;;;;;3601886;39;22449;-53
2021/04/02 09:18:17;;;;;;;7.72;5.93;;;;;;;;;;3602643;39;20278;-53
2021/04/02 09:20:43;;;;;;;7.00;5.95;;;;;;;;;;3600956;39;20080;-50
2021/04/02 09:23:09;;;;;;;9.95;5.97;;;;;;;;;;3599356;39;20344;-52
2021/04/02 09:25:38;;;;;;;9.95;5.57;;;;;;;;;;3598561;39;20174;-55
2021/04/02 09:28:05;;;;;;;6.53;5.43;;;;;;;;;;3598088;39;20074;-53
2021/04/02 09:30:31;;;;;;;8.07;6.07;;;;;;;;;;3600080;39;20080;-53
2021/04/02 09:32:56;;;;;;;7.10;6.03;;;;;;;;;;3600970;39;20076;-50
2021/04/02 09:35:23;;;;;;;7.90;5.68;;;;;;;;;;3601034;39;20064;-50
2021/04/02 09:37:49;;;;;;;8.25;6.28;;;;;;;;;;3602155;39;20458;-52
2021/04/02 09:40:15;;;;;;;7.63;6.32;;;;;;;;;;3602483;39;20172;-54
2021/04/02 09:42:41;;;;;;;7.53;5.82;;;;;;;;;;3599925;39;20067;-51
2021/04/02 09:45:10;;;;;;;8.68;5.80;;;;;;;;;;3602640;39;20072;-54
2021/04/02 09:47:46;;;;;;;7.50;5.78;;;;;;;;;;3600227;39;20079;-52
2021/04/02 09:50:14;;;;;;;6.80;6.10;;;;;;;;;;3600469;39;20450;-54
2021/04/02 09:52:40;;;;;;;8.15;5.50;;;;;;;;;;3600959;39;20068;-54
2021/04/02 09:55:07;;;;;;;7.47;5.38;;;;;;;;;;3602392;39;20197;-52
2021/04/02 09:57:33;;;;;;;6.80;5.40;;;;;;;;;;3600251;39;20163;-54
2021/04/02 09:59:59;;;;;;;7.80;5.53;;;;;;;;;;3600101;39;20071;-53
2021/04/02 10:02:25;;;;;;;9.55;5.70;;;;;;;;;;3600257;39;20176;-53
2021/04/02 10:04:50;;;;;;;6.60;5.70;;;;;;;;;;3600663;39;20086;-54
2021/04/02 10:07:16;;;;;;;7.10;5.55;;;;;;;;;;3598424;39;20360;-50
2021/04/02 10:09:41;;;;;;;7.35;5.93;;;;;;;;;;3601540;39;20454;-53
2021/04/02 10:12:07;;;;;;;8.23;5.72;;;;;;;;;;3602017;39;20261;-55
2021/04/02 10:14:32;;;;;;;8.27;6.25;;;;;;;;;;3599156;39;20171;-51
2021/04/02 10:16:58;;;;;;;7.68;5.53;;;;;;;;;;3599408;39;20107;-52
2021/04/02 10:19:24;;;;;;;7.43;5.35;;;;;;;;;;3600684;39;20076;-54
2021/04/02 10:21:49;;;;;;;7.43;5.78;;;;;;;;;;3601874;39;20144;-51
2021/04/02 10:24:14;;;;;;;7.30;5.72;;;;;;;;;;3600433;39;20435;-54
2021/04/02 10:26:40;;;;;;;9.18;7.38;;;;;;;;;;3600869;39;20074;-53
2021/04/02 10:29:05;;;;;;;7.45;6.55;;;;;;;;;;3600931;39;20106;-54
2021/04/02 10:31:31;;;;;;;7.72;6.45;;;;;;;;;;3599190;39;20075;-53
2021/04/02 10:33:57;;;;;;;6.65;5.88;;;;;;;;;;3599575;39;20163;-51
2021/04/02 10:36:23;;;;;;;10.05;5.82;;;;;;;;;;3601264;39;20082;-52
2021/04/02 10:38:49;;;;;;;8.80;5.47;;;;;;;;;;3602099;39;20179;-55
2021/04/02 10:41:15;;;;;;;17.25;5.90;;;;;;;;;;3599441;39;20102;-52
2021/04/02 10:43:40;;;;;;;6.30;5.20;;;;;;;;;;3597884;39;20772;-54
2021/04/02 10:46:06;;;;;;;7.22;5.00;;;;;;;;;;3598836;39;20202;-50
2021/04/02 10:48:31;;;;;;;9.85;5.45;;;;;;;;;;3597330;39;20076;-51
2021/04/02 10:50:57;;;;;;;7.40;5.95;;;;;;;;;;3599456;39;20075;-56
2021/04/02 10:53:24;;;;;;;8.27;6.20;;;;;;;;;;3598173;39;20344;-56
2021/04/02 10:55:50;;;;;;;8.45;6.45;;;;;;;;;;3596092;39;20355;-55
2021/04/02 10:58:15;;;;;;;7.22;5.35;;;;;;;;;;3598788;39;20072;-52
2021/04/02 11:00:42;;;;;;;6.68;5.72;;;;;;;;;;3598069;39;20176;-53
2021/04/02 11:03:07;;;;;;;8.60;6.30;;;;;;;;;;3601431;39;20068;-54
2021/04/02 11:05:34;;;;;;;7.45;5.68;;;;;;;;;;3599682;39;20070;-53
2021/04/02 11:08:00;;;;;;;8.30;5.90;;;;;;;;;;3601938;39;20154;-54
2021/04/02 11:10:28;;;;;;;7.40;5.57;;;;;;;;;;3600174;39;20202;-56
2021/04/02 11:12:54;;;;;;;8.02;6.03;;;;;;;;;;3600146;39;20381;-56
2021/04/02 11:15:20;;;;;;;8.40;5.80;;;;;;;;;;3598768;39;20106;-51
2021/04/02 11:17:47;;;;;;;6.40;4.82;;;;;;;;;;3599713;39;20071;-56
2021/04/02 11:20:19;;;;;;;6.90;6.03;;;;;;;;;;3601288;39;20087;-54
2021/04/02 11:22:45;;;;;;;6.38;5.25;;;;;;;;;;3600951;39;20075;-55
2021/04/02 11:25:12;;;;;;;5.80;5.22;;;;;;;;;;3596318;39;20096;-55
2021/04/02 11:27:38;;;;;;;7.22;5.50;;;;;;;;;;3599874;39;20091;-55
2021/04/02 11:30:06;;;;;;;8.23;5.90;;;;;;;;;;3600315;39;20103;-54
2021/04/02 11:32:31;;;;;;;7.72;5.57;;;;;;;;;;3598537;39;20279;-53
2021/04/02 11:34:57;;;;;;;8.30;5.45;;;;;;;;;;3599266;39;20232;-50
2021/04/02 11:37:23;;;;;;;7.65;5.88;;;;;;;;;;3600826;39;20067;-53
2021/04/02 11:39:49;;;;;;;6.80;5.13;;;;;;;;;;3601235;39;20075;-52
2021/04/02 11:42:15;;;;;;;7.35;5.50;;;;;;;;;;3599424;39;20369;-51
2021/04/02 11:44:40;;;;;;;6.68;5.10;;;;;;;;;;3601355;39;20264;-52
2021/04/02 11:47:06;;;;;;;6.22;5.63;;;;;;;;;;3600589;39;20875;-54
2021/04/02 11:49:32;;;;;;;7.05;5.63;;;;;;;;;;3598572;39;20087;-51
2021/04/02 11:51:58;;;;;;;8.68;5.85;;;;;;;;;;3600694;39;20095;-52
2021/04/02 11:54:23;;;;;;;8.63;5.75;;;;;;;;;;3599246;39;20086;-53
2021/04/02 11:56:49;;;;;;;8.15;5.40;;;;;;;;;;3601248;39;20374;-52
2021/04/02 11:59:15;;;;;;;8.25;5.93;;;;;;;;;;3600606;39;20068;-53
2021/04/02 12:01:40;;;;;;;7.30;5.55;;;;;;;;;;3600178;39;20080;-52
2021/04/02 12:04:06;;;;;;;6.32;5.07;;;;;;;;;;3603000;39;20079;-50
2021/04/02 12:06:32;;;;;;;6.20;5.10;;;;;;;;;;3602089;39;20068;-53
2021/04/02 12:08:58;;;;;;;13.40;6.13;;;;;;;;;;3600852;39;20102;-56
2021/04/02 12:11:23;;;;;;;7.53;6.20;;;;;;;;;;3601120;39;20157;-52
2021/04/02 12:13:48;;;;;;;7.07;5.80;;;;;;;;;;3601239;39;20071;-56
2021/04/02 12:16:14;;;;;;;7.63;5.80;;;;;;;;;;3601872;39;20083;-54
2021/04/02 12:18:39;;;;;;;7.45;5.47;;;;;;;;;;3600975;39;20072;-55
2021/04/02 12:21:05;;;;;;;7.63;5.95;;;;;;;;;;3602754;39;20154;-54
2021/04/02 12:23:30;;;;;;;6.78;5.55;;;;;;;;;;3602073;39;20384;-53
2021/04/02 12:25:56;;;;;;;7.72;5.45;;;;;;;;;;3602580;39;20072;-53
2021/04/02 12:28:21;;;;;;;7.57;5.57;;;;;;;;;;3599926;39;20074;-55
2021/04/02 12:30:47;;;;;;;6.55;5.53;;;;;;;;;;3600695;39;20168;-53
2021/04/02 12:33:12;;;;;;;5.85;5.05;;;;;;;;;;3602842;39;20099;-53
2021/04/02 12:35:38;;;;;;;7.45;5.80;;;;;;;;;;3600525;39;20171;-51
2021/04/02 12:38:09;;;;;;;8.85;6.57;;;;;;;;;;3598134;39;20076;-53
2021/04/02 12:40:35;;;;;;;;;;;;;;;;;;3601248;39;20064;-54
2021/04/02 12:43:00;;;;;;;8.50;5.68;;;;;;;;;;3598167;39;20885;-53
2021/04/02 12:45:26;;;;;;;7.57;5.80;;;;;;;;;;3597468;39;20075;-54
2021/04/02 12:47:52;;;;;;;7.45;5.68;;;;;;;;;;3599741;39;20107;-52
2021/04/02 12:50:20;;;;;;;8.50;5.75;;;;;;;;;;3601100;39;20064;-50
2021/04/02 12:52:47;;;;;;;10.70;5.68;;;;;;;;;;3599645;39;20072;-52
2021/04/02 12:55:15;;;;;;;7.55;5.97;;;;;;;;;;3601715;39;20179;-55
2021/04/02 12:57:41;;;;;;;9.30;5.40;;;;;;;;;;3599440;39;20406;-51
2021/04/02 13:00:13;;;;;;;8.85;5.65;;;;;;;;;;3600905;39;20068;-55
2021/04/02 13:02:39;;;;;;;6.25;5.30;;;;;;;;;;3600194;39;20162;-52
2021/04/02 13:05:06;;;;;;;8.15;5.03;;;;;;;;;;3601422;39;20426;-53
2021/04/02 13:07:31;;;;;;;7.38;5.38;;;;;;;;;;3600552;39;20063;-53
2021/04/02 13:09:58;;;;;;;6.80;4.50;;;;;;;;;;3601243;39;20255;-52
2021/04/02 13:12:23;;;;;;;7.28;4.88;;;;;;;;;;3600088;39;20373;-54
2021/04/02 13:14:48;;;;;;;7.18;5.22;;;;;;;;;;3602533;39;20072;-54
2021/04/02 13:17:14;;;;;;;7.22;5.57;;;;;;;;;;3598012;39;20441;-54
2021/04/02 13:19:39;;;;;;;7.57;4.55;;;;;;;;;;3601098;39;20064;-54
2021/04/02 13:22:05;;;;;;;6.35;5.43;;;;;;;;;;3601361;39;20152;-53
2021/04/02 13:24:31;;;;;;;6.53;4.85;;;;;;;;;;3602617;39;20087;-55
2021/04/02 13:26:56;;;;;;;6.75;4.97;;;;;;;;;;3602370;39;20076;-51
2021/04/02 13:29:22;;;;;;;6.35;5.15;;;;;;;;;;3601600;39;20063;-52
2021/04/02 13:31:48;;;;;;;7.25;5.00;;;;;;;;;;3603137;39;20079;-55
2021/04/02 13:34:13;;;;;;;10.95;5.65;;;;;;;;;;3602113;39;20110;-52
2021/04/02 13:36:39;;;;;;;7.25;5.35;;;;;;;;;;3599774;39;20137;-53
2021/04/02 13:39:05;;;;;;;6.05;5.13;;;;;;;;;;3603131;39;20078;-55
2021/04/02 13:41:31;;;;;;;7.43;5.45;;;;;;;;;;3602558;39;20204;-50
2021/04/02 13:43:56;;;;;;;8.30;5.82;;;;;;;;;;3600993;39;20068;-50
2021/04/02 13:46:22;;;;;;;6.10;5.38;;;;;;;;;;3599708;39;20763;-51
2021/04/02 13:48:47;;;;;;;6.40;4.60;;;;;;;;;;3603123;39;20151;-53
2021/04/02 13:51:13;;;;;;;9.38;6.30;;;;;;;;;;3598882;39;20806;-54
2021/04/02 13:53:39;;;;;;;6.18;4.90;;;;;;;;;;3601384;39;20071;-53
2021/04/02 13:56:05;;;;;;;5.85;4.63;;;;;;;;;;3602870;39;20465;-55
2021/04/02 13:58:31;;;;;;;5.55;4.47;;;;;;;;;;3600483;39;20076;-50
2021/04/02 14:00:56;;;;;;;7.53;5.63;;;;;;;;;;3603003;39;20075;-55
2021/04/02 14:03:22;;;;;;;10.73;5.95;;;;;;;;;;3602478;39;20071;-54
2021/04/02 14:05:48;;;;;;;6.53;4.57;;;;;;;;;;3600625;39;20085;-55
2021/04/02 14:08:13;;;;;;;6.80;5.53;;;;;;;;;;3602939;39;20627;-52
2021/04/02 14:10:39;;;;;;;6.15;4.80;;;;;;;;;;3601848;39;20260;-53
2021/04/02 14:13:05;;;;;;;7.30;5.57;;;;;;;;;;3602156;39;20251;-55
2021/04/02 14:15:31;;;;;;;9.70;4.72;;;;;;;;;;3602518;39;20362;-54
2021/04/02 14:17:57;;;;;;;7.65;4.82;;;;;;;;;;3602926;39;20087;-54
2021/04/02 14:20:37;;;;;;;6.03;4.80;;;;;;;;;;3600121;39;20057;-55
2021/04/02 14:23:03;;;;;;;7.60;4.60;;;;;;;;;;3598674;39;20078;-53
2021/04/02 14:25:29;;;;;;;6.22;4.63;;;;;;;;;;3601869;39;20398;-53
2021/04/02 14:27:55;;;;;;;9.57;4.80;;;;;;;;;;3602310;39;20063;-56
2021/04/02 14:30:27;;;;;;;6.72;4.80;;;;;;;;;;3599267;39;20155;-55
2021/04/02 14:32:53;;;;;;;5.25;3.92;;;;;;;;;;3600750;39;20341;-55
2021/04/02 14:35:19;;;;;;;7.03;4.50;;;;;;;;;;3602429;39;20106;-55
2021/04/02 14:37:45;;;;;;;5.70;4.43;;;;;;;;;;3600908;39;20079;-56
2021/04/02 14:40:15;;;;;;;7.80;4.78;;;;;;;;;;3601518;39;20120;-51
2021/04/02 14:42:40;;;;;;;7.23;4.47;;;;;;;;;;3602351;39;20083;-55
2021/04/02 14:45:07;;;;;;;7.30;5.00;;;;;;;;;;3601140;39;20150;-52
2021/04/02 14:47:32;;;;;;;6.45;4.53;;;;;;;;;;3599476;39;20261;-55